QLK573D YPAD-YWHA
Flight info
| Callsign | QLK573D |
|---|---|
| Flight time | 0h 34m |
| Altitude | 16000 |
| Route | AD5/23 AD W238 RUKNA W142 WHA |
| Aircraft | DH8D/M-SDE2E3FGRY/H |
Departure
| Time | 2026-04-16 16:35 |
|---|---|
| Airport | Adelaide International Airport (YPAD) |
Arrival
| Time | 2026-04-16 17:09 |
|---|---|
| Airport | Whyalla Airport (YWHA) |
| Time | Latitude | Longitude | Altitude | Speed | Heading |
|---|---|---|---|---|---|
| 2026-04-16 16:22 | -34.93995 | 138.53587 | 39 ft | 0 kts | 279° |
| 2026-04-16 16:30 | -34.93990 | 138.53532 | 39 ft | 11 kts | 259° |
| 2026-04-16 16:30 | -34.94038 | 138.53458 | 39 ft | 10 kts | 228° |
| 2026-04-16 16:30 | -34.94098 | 138.53374 | 39 ft | 17 kts | 219° |
| 2026-04-16 16:30 | -34.94190 | 138.53410 | 39 ft | 15 kts | 136° |
| 2026-04-16 16:31 | -34.94266 | 138.53522 | 37 ft | 11 kts | 64° |
| 2026-04-16 16:31 | -34.94227 | 138.53598 | 37 ft | 9 kts | 79° |
| 2026-04-16 16:31 | -34.94246 | 138.53711 | 38 ft | 19 kts | 72° |
| 2026-04-16 16:31 | -34.94173 | 138.53828 | 39 ft | 15 kts | 50° |
| 2026-04-16 16:32 | -34.94110 | 138.53922 | 39 ft | 13 kts | 50° |
| 2026-04-16 16:32 | -34.94040 | 138.54025 | 39 ft | 18 kts | 49° |
| 2026-04-16 16:32 | -34.93975 | 138.54120 | 39 ft | 8 kts | 49° |
| 2026-04-16 16:32 | -34.93949 | 138.54175 | 40 ft | 6 kts | 96° |
| 2026-04-16 16:33 | -34.93964 | 138.54210 | 41 ft | 4 kts | 138° |
| 2026-04-16 16:33 | -34.93989 | 138.54234 | 41 ft | 0 kts | 142° |
| 2026-04-16 16:33 | -34.93990 | 138.54236 | 41 ft | 1 kts | 142° |
| 2026-04-16 16:34 | -34.94039 | 138.54283 | 40 ft | 10 kts | 142° |
| 2026-04-16 16:34 | -34.94089 | 138.54283 | 40 ft | 6 kts | 213° |
| 2026-04-16 16:34 | -34.94147 | 138.54199 | 39 ft | 35 kts | 229° |
| 2026-04-16 16:34 | -34.94538 | 138.53632 | 36 ft | 128 kts | 230° |
| 2026-04-16 16:35 | -34.95195 | 138.52646 | 183 ft | 168 kts | 231° |
| 2026-04-16 16:35 | -34.95917 | 138.51491 | 847 ft | 178 kts | 232° |
| 2026-04-16 16:35 | -34.96670 | 138.50305 | 1701 ft | 179 kts | 231° |
| 2026-04-16 16:35 | -34.97429 | 138.49123 | 2550 ft | 180 kts | 232° |
| 2026-04-16 16:36 | -34.98183 | 138.47948 | 3361 ft | 179 kts | 237° |
| 2026-04-16 16:36 | -34.98367 | 138.46513 | 4073 ft | 180 kts | 286° |
| 2026-04-16 16:36 | -34.97498 | 138.45441 | 4599 ft | 193 kts | 333° |
| 2026-04-16 16:36 | -34.96173 | 138.45042 | 5243 ft | 197 kts | 342° |
| 2026-04-16 16:37 | -34.94835 | 138.44743 | 5857 ft | 199 kts | 342° |
| 2026-04-16 16:37 | -34.93472 | 138.44457 | 6521 ft | 199 kts | 342° |
| 2026-04-16 16:37 | -34.92107 | 138.44177 | 7114 ft | 202 kts | 343° |
| 2026-04-16 16:37 | -34.90711 | 138.43900 | 7749 ft | 204 kts | 343° |
| 2026-04-16 16:38 | -34.89314 | 138.43625 | 8362 ft | 206 kts | 343° |
| 2026-04-16 16:38 | -34.87902 | 138.43352 | 8970 ft | 208 kts | 343° |
| 2026-04-16 16:38 | -34.86473 | 138.43079 | 9579 ft | 209 kts | 343° |
| 2026-04-16 16:38 | -34.85014 | 138.42799 | 10137 ft | 213 kts | 343° |
| 2026-04-16 16:39 | -34.83547 | 138.42522 | 10699 ft | 218 kts | 343° |
| 2026-04-16 16:39 | -34.81997 | 138.42223 | 11113 ft | 228 kts | 343° |
| 2026-04-16 16:39 | -34.80412 | 138.41922 | 11638 ft | 233 kts | 343° |
| 2026-04-16 16:39 | -34.78790 | 138.41618 | 12176 ft | 237 kts | 343° |
| 2026-04-16 16:40 | -34.77182 | 138.41318 | 12731 ft | 240 kts | 343° |
| 2026-04-16 16:40 | -34.75533 | 138.41010 | 13286 ft | 241 kts | 343° |
| 2026-04-16 16:40 | -34.73875 | 138.40701 | 13826 ft | 243 kts | 342° |
| 2026-04-16 16:40 | -34.72204 | 138.40390 | 14386 ft | 243 kts | 343° |
| 2026-04-16 16:41 | -34.70532 | 138.40077 | 14836 ft | 246 kts | 342° |
| 2026-04-16 16:41 | -34.68832 | 138.39763 | 15364 ft | 246 kts | 342° |
| 2026-04-16 16:41 | -34.67115 | 138.39442 | 15802 ft | 250 kts | 342° |
| 2026-04-16 16:41 | -34.65339 | 138.39104 | 15964 ft | 265 kts | 343° |
| 2026-04-16 16:42 | -34.63475 | 138.38748 | 16018 ft | 282 kts | 343° |
| 2026-04-16 16:42 | -34.61473 | 138.38368 | 16028 ft | 297 kts | 343° |
| 2026-04-16 16:42 | -34.59399 | 138.37981 | 16030 ft | 308 kts | 344° |
| 2026-04-16 16:42 | -34.57226 | 138.37576 | 16024 ft | 318 kts | 344° |
| 2026-04-16 16:43 | -34.55006 | 138.37166 | 16023 ft | 325 kts | 345° |
| 2026-04-16 16:43 | -34.52741 | 138.36748 | 16020 ft | 331 kts | 345° |
| 2026-04-16 16:43 | -34.50473 | 138.36330 | 16021 ft | 335 kts | 345° |
| 2026-04-16 16:43 | -34.48143 | 138.35901 | 16022 ft | 339 kts | 345° |
| 2026-04-16 16:44 | -34.45808 | 138.35371 | 16018 ft | 338 kts | 340° |
| 2026-04-16 16:44 | -34.43563 | 138.34613 | 16024 ft | 339 kts | 338° |
| 2026-04-16 16:44 | -34.41269 | 138.33809 | 16018 ft | 341 kts | 338° |
| 2026-04-16 16:44 | -34.38997 | 138.33011 | 16016 ft | 342 kts | 338° |
| 2026-04-16 16:45 | -34.36723 | 138.32216 | 16020 ft | 343 kts | 338° |
| 2026-04-16 16:45 | -34.34399 | 138.31404 | 16020 ft | 344 kts | 338° |
| 2026-04-16 16:45 | -34.32109 | 138.30608 | 16016 ft | 344 kts | 338° |
| 2026-04-16 16:45 | -34.29792 | 138.29803 | 16017 ft | 344 kts | 338° |
| 2026-04-16 16:46 | -34.27497 | 138.29007 | 16016 ft | 345 kts | 338° |
| 2026-04-16 16:46 | -34.25200 | 138.28210 | 16018 ft | 345 kts | 338° |
| 2026-04-16 16:46 | -34.22903 | 138.27417 | 16015 ft | 345 kts | 338° |
| 2026-04-16 16:46 | -34.20577 | 138.26611 | 16018 ft | 345 kts | 338° |
| 2026-04-16 16:47 | -34.18261 | 138.25812 | 16020 ft | 345 kts | 338° |
| 2026-04-16 16:47 | -34.15948 | 138.25014 | 16019 ft | 345 kts | 338° |
| 2026-04-16 16:47 | -34.13670 | 138.24182 | 16008 ft | 343 kts | 334° |
| 2026-04-16 16:47 | -34.11541 | 138.22920 | 16024 ft | 337 kts | 326° |
| 2026-04-16 16:48 | -34.09516 | 138.21542 | 16022 ft | 337 kts | 325° |
| 2026-04-16 16:48 | -34.07462 | 138.20140 | 16022 ft | 338 kts | 325° |
| 2026-04-16 16:48 | -34.05403 | 138.18738 | 16019 ft | 338 kts | 325° |
| 2026-04-16 16:48 | -34.03366 | 138.17354 | 16014 ft | 338 kts | 325° |
| 2026-04-16 16:49 | -34.01297 | 138.15953 | 16017 ft | 338 kts | 325° |
| 2026-04-16 16:49 | -33.99267 | 138.14580 | 16025 ft | 338 kts | 326° |
| 2026-04-16 16:49 | -33.97213 | 138.13193 | 16022 ft | 338 kts | 326° |
| 2026-04-16 16:49 | -33.95155 | 138.11804 | 16021 ft | 338 kts | 325° |
| 2026-04-16 16:50 | -33.93100 | 138.10420 | 16020 ft | 337 kts | 325° |
| 2026-04-16 16:50 | -33.91071 | 138.09055 | 16016 ft | 338 kts | 325° |
| 2026-04-16 16:50 | -33.89016 | 138.07672 | 16012 ft | 337 kts | 325° |
| 2026-04-16 16:50 | -33.86964 | 138.06296 | 16019 ft | 337 kts | 325° |
| 2026-04-16 16:51 | -33.84911 | 138.04916 | 16026 ft | 337 kts | 326° |
| 2026-04-16 16:51 | -33.82855 | 138.03537 | 16019 ft | 338 kts | 326° |
| 2026-04-16 16:51 | -33.80792 | 138.02153 | 16016 ft | 338 kts | 326° |
| 2026-04-16 16:51 | -33.78753 | 138.00787 | 16021 ft | 338 kts | 326° |
| 2026-04-16 16:52 | -33.76698 | 137.99411 | 16022 ft | 338 kts | 326° |
| 2026-04-16 16:52 | -33.74644 | 137.98038 | 16021 ft | 338 kts | 326° |
| 2026-04-16 16:52 | -33.72582 | 137.96658 | 16016 ft | 338 kts | 326° |
| 2026-04-16 16:52 | -33.70544 | 137.95296 | 16018 ft | 338 kts | 326° |
| 2026-04-16 16:53 | -33.68480 | 137.93916 | 16018 ft | 338 kts | 326° |
| 2026-04-16 16:53 | -33.66423 | 137.92543 | 16020 ft | 338 kts | 326° |
| 2026-04-16 16:53 | -33.64372 | 137.91174 | 16020 ft | 338 kts | 326° |
| 2026-04-16 16:53 | -33.62318 | 137.89804 | 16021 ft | 338 kts | 326° |
| 2026-04-16 16:54 | -33.60262 | 137.88435 | 16007 ft | 334 kts | 326° |
| 2026-04-16 16:54 | -33.58284 | 137.87115 | 15529 ft | 320 kts | 326° |
| 2026-04-16 16:54 | -33.56354 | 137.85826 | 14893 ft | 311 kts | 326° |
| 2026-04-16 16:54 | -33.54418 | 137.84720 | 14178 ft | 309 kts | 334° |
| 2026-04-16 16:55 | -33.52408 | 137.83914 | 13721 ft | 302 kts | 337° |
| 2026-04-16 16:55 | -33.50388 | 137.83133 | 13368 ft | 308 kts | 337° |
| 2026-04-16 16:55 | -33.48354 | 137.82346 | 13032 ft | 312 kts | 337° |
| 2026-04-16 16:55 | -33.46280 | 137.81541 | 12705 ft | 315 kts | 337° |
| 2026-04-16 16:56 | -33.44182 | 137.80727 | 12373 ft | 316 kts | 338° |
| 2026-04-16 16:56 | -33.42088 | 137.79912 | 12041 ft | 317 kts | 338° |
| 2026-04-16 16:56 | -33.39972 | 137.79088 | 11712 ft | 318 kts | 338° |
| 2026-04-16 16:56 | -33.37888 | 137.78276 | 11385 ft | 318 kts | 338° |
| 2026-04-16 16:57 | -33.35760 | 137.77446 | 11052 ft | 318 kts | 338° |
| 2026-04-16 16:57 | -33.31558 | 137.75809 | 10394 ft | 317 kts | 338° |
| 2026-04-16 16:57 | -33.29461 | 137.74992 | 10060 ft | 317 kts | 338° |
| 2026-04-16 16:58 | -33.27389 | 137.74185 | 9737 ft | 316 kts | 339° |
| 2026-04-16 16:58 | -33.25309 | 137.73375 | 9409 ft | 308 kts | 338° |
| 2026-04-16 16:58 | -33.23328 | 137.72603 | 9089 ft | 289 kts | 338° |
| 2026-04-16 16:58 | -33.21429 | 137.71863 | 8801 ft | 284 kts | 338° |
| 2026-04-16 16:59 | -33.19556 | 137.71137 | 8511 ft | 284 kts | 338° |
| 2026-04-16 16:59 | -33.17681 | 137.70409 | 8215 ft | 279 kts | 338° |
| 2026-04-16 16:59 | -33.15903 | 137.69716 | 7928 ft | 263 kts | 338° |
| 2026-04-16 16:59 | -33.14200 | 137.69054 | 7661 ft | 251 kts | 338° |
| 2026-04-16 17:00 | -33.12566 | 137.68419 | 7412 ft | 242 kts | 338° |
| 2026-04-16 17:00 | -33.10976 | 137.67801 | 7167 ft | 235 kts | 338° |
| 2026-04-16 17:00 | -33.09451 | 137.67210 | 6930 ft | 230 kts | 338° |
| 2026-04-16 17:00 | -33.07937 | 137.66625 | 6694 ft | 227 kts | 338° |
| 2026-04-16 17:01 | -33.06437 | 137.66043 | 6462 ft | 226 kts | 338° |
| 2026-04-16 17:01 | -33.04917 | 137.65453 | 6234 ft | 235 kts | 338° |
| 2026-04-16 17:01 | -33.03332 | 137.64839 | 5986 ft | 243 kts | 338° |
| 2026-04-16 17:01 | -33.01699 | 137.64206 | 5731 ft | 250 kts | 339° |
| 2026-04-16 17:02 | -33.00028 | 137.63560 | 5468 ft | 254 kts | 339° |
| 2026-04-16 17:02 | -32.98340 | 137.62907 | 5198 ft | 249 kts | 339° |
| 2026-04-16 17:02 | -32.96717 | 137.62279 | 4942 ft | 245 kts | 340° |
| 2026-04-16 17:02 | -32.95098 | 137.61652 | 4687 ft | 241 kts | 340° |
| 2026-04-16 17:03 | -32.93527 | 137.61046 | 4436 ft | 237 kts | 340° |
| 2026-04-16 17:03 | -32.91957 | 137.60439 | 4190 ft | 234 kts | 340° |
| 2026-04-16 17:03 | -32.90417 | 137.59843 | 3951 ft | 232 kts | 340° |
| 2026-04-16 17:03 | -32.88888 | 137.59251 | 3713 ft | 229 kts | 341° |
| 2026-04-16 17:04 | -32.87374 | 137.58659 | 3458 ft | 228 kts | 339° |
| 2026-04-16 17:04 | -32.86113 | 137.57602 | 3196 ft | 221 kts | 302° |
| 2026-04-16 17:04 | -32.85818 | 137.55809 | 3082 ft | 205 kts | 256° |
| 2026-04-16 17:04 | -32.86389 | 137.54190 | 3039 ft | 191 kts | 243° |
| 2026-04-16 17:05 | -32.87023 | 137.52727 | 3016 ft | 177 kts | 242° |
| 2026-04-16 17:05 | -32.87628 | 137.51386 | 2995 ft | 160 kts | 241° |
| 2026-04-16 17:05 | -32.88204 | 137.50142 | 3030 ft | 159 kts | 237° |
| 2026-04-16 17:05 | -32.89181 | 137.49303 | 2980 ft | 179 kts | 187° |
| 2026-04-16 17:06 | -32.90620 | 137.49426 | 2859 ft | 202 kts | 170° |
| 2026-04-16 17:06 | -32.92137 | 137.49768 | 2586 ft | 203 kts | 168° |
| 2026-04-16 17:06 | -32.93582 | 137.50108 | 2303 ft | 194 kts | 167° |
| 2026-04-16 17:06 | -32.94879 | 137.50415 | 2047 ft | 184 kts | 167° |
| 2026-04-16 17:07 | -32.96102 | 137.50699 | 1808 ft | 173 kts | 167° |
| 2026-04-16 17:07 | -32.97252 | 137.50957 | 1595 ft | 169 kts | 169° |
| 2026-04-16 17:07 | -32.98415 | 137.51117 | 1363 ft | 166 kts | 173° |
| 2026-04-16 17:07 | -32.99688 | 137.51251 | 1174 ft | 194 kts | 173° |
| 2026-04-16 17:08 | -33.00975 | 137.51366 | 921 ft | 173 kts | 173° |
| 2026-04-16 17:08 | -33.02080 | 137.51479 | 808 ft | 147 kts | 172° |
| 2026-04-16 17:08 | -33.03080 | 137.51592 | 628 ft | 145 kts | 172° |
| 2026-04-16 17:08 | -33.04087 | 137.51717 | 361 ft | 143 kts | 171° |
| 2026-04-16 17:09 | -33.05049 | 137.51836 | 106 ft | 132 kts | 171° |
| 2026-04-16 17:09 | -33.05850 | 137.51938 | 47 ft | 89 kts | 174° |
| 2026-04-16 17:09 | -33.06347 | 137.51999 | 41 ft | 58 kts | 174° |
| 2026-04-16 17:09 | -33.06560 | 137.52016 | 41 ft | 12 kts | 187° |
| 2026-04-16 17:10 | -33.06578 | 137.52028 | 41 ft | 1 kts | 41° |
| 2026-04-16 17:10 | -33.06490 | 137.52019 | 41 ft | 26 kts | 353° |
| 2026-04-16 17:10 | -33.06302 | 137.51994 | 41 ft | 25 kts | 353° |
| 2026-04-16 17:10 | -33.06149 | 137.51973 | 44 ft | 19 kts | 354° |
| 2026-04-16 17:11 | -33.05958 | 137.51953 | 45 ft | 36 kts | 355° |
| 2026-04-16 17:11 | -33.05681 | 137.51916 | 47 ft | 37 kts | 354° |
| 2026-04-16 17:11 | -33.05502 | 137.51897 | 47 ft | 16 kts | 6° |
| 2026-04-16 17:11 | -33.05465 | 137.51985 | 48 ft | 11 kts | 85° |
| 2026-04-16 17:12 | -33.05457 | 137.52065 | 48 ft | 8 kts | 76° |
| 2026-04-16 17:12 | -33.05424 | 137.52104 | 48 ft | 6 kts | 13° |
| 2026-04-16 17:12 | -33.05376 | 137.52103 | 48 ft | 7 kts | 353° |
| 2026-04-16 17:12 | -33.05325 | 137.52097 | 49 ft | 7 kts | 354° |
| 2026-04-16 17:13 | -33.05270 | 137.52092 | 49 ft | 7 kts | 355° |
| 2026-04-16 17:13 | -33.05244 | 137.52097 | 49 ft | 2 kts | 82° |
| 2026-04-16 17:13 | -33.05253 | 137.52125 | 48 ft | 3 kts | 123° |
| 2026-04-16 17:13 | -33.05256 | 137.52132 | 48 ft | 0 kts | 122° |